| time (UTC) | temp F | wind direction | speed MPH | gust MPH | rain 1hr in | rain 24hr in | rain mn in | humidity % | barometer mb |
| 20260506184521 | 52 | 316 | 0.0 | 1.0 | 0.00 | 0.64 | 0.48 | 87 | 1011.2 |
| 20260506183022 | 52 | 316 | 0.0 | 1.0 | 0.00 | 0.65 | 0.48 | 86 | 1011.2 |
| 20260506181528 | 52 | 316 | 0.0 | 1.0 | 0.00 | 0.66 | 0.48 | 86 | 1010.9 |
| 20260506180038 | 52 | 323 | 0.0 | 3.0 | 0.00 | 0.66 | 0.48 | 85 | 1010.8 |
| 20260506174513 | 52 | 267 | 0.0 | 2.0 | 0.00 | 0.67 | 0.48 | 84 | 1010.5 |
| 20260506173020 | 52 | 286 | 0.0 | 3.0 | 0.00 | 0.67 | 0.48 | 83 | 1010.4 |
| 20260506171527 | 53 | 350 | 0.0 | 5.0 | 0.00 | 0.67 | 0.48 | 81 | 1010.2 |
| 20260506170027 | 53 | 286 | 1.0 | 4.0 | 0.00 | 0.67 | 0.48 | 82 | 1010.2 |
| 20260506164529 | 52 | 252 | 0.0 | 4.0 | 0.00 | 0.67 | 0.48 | 85 | 1010.1 |
| 20260506163052 | 52 | 317 | 0.0 | 2.0 | 0.00 | 0.67 | 0.48 | 86 | 1010.1 |
| 20260506161520 | 52 | 325 | 0.0 | 1.0 | 0.00 | 0.67 | 0.48 | 90 | 1010.1 |
| 20260506160010 | 52 | 347 | 0.0 | 1.0 | 0.00 | 0.67 | 0.48 | 89 | 1010.1 |
| 20260506154509 | 52 | 347 | 0.0 | 0.0 | 0.00 | 0.67 | 0.48 | 89 | 1010.1 |
| 20260506153010 | 53 | 347 | 0.0 | 1.0 | 0.00 | 0.67 | 0.48 | 87 | 1010.0 |
| 20260506151518 | 53 | 347 | 0.0 | 1.0 | 0.00 | 0.67 | 0.48 | 86 | 1010.1 |
| 20260506150026 | 53 | 347 | 0.0 | 1.0 | 0.00 | 0.67 | 0.48 | 87 | 1010.1 |
| 20260506144503 | 53 | 271 | 0.0 | 2.0 | 0.00 | 0.67 | 0.48 | 86 | 1010.0 |
| 20260506143008 | 53 | 303 | 0.0 | 2.0 | 0.00 | 0.67 | 0.48 | 86 | 1010.0 |
| 20260506141514 | 53 | 268 | 0.0 | 3.0 | 0.00 | 0.67 | 0.48 | 86 | 1010.0 |
| 20260506140018 | 52 | 266 | 0.0 | 3.0 | 0.00 | 0.67 | 0.48 | 89 | 1010.1 |
| 20260506134522 | 52 | 261 | 1.0 | 3.0 | 0.00 | 0.67 | 0.48 | 87 | 1010.0 |
| 20260506133028 | 52 | 316 | 0.0 | 3.0 | 0.00 | 0.67 | 0.48 | 87 | 1010.1 |
| 20260506131514 | 53 | 330 | 0.0 | 3.0 | 0.00 | 0.67 | 0.48 | 88 | 1010.0 |
| 20260506130014 | 53 | 5 | 0.0 | 4.0 | 0.00 | 0.67 | 0.48 | 87 | 1010.0 |
| 20260506124520 | 52 | 315 | 1.0 | 7.0 | 0.00 | 0.67 | 0.48 | 88 | 1009.9 |
| 20260506123026 | 52 | 292 | 1.0 | 6.0 | 0.00 | 0.67 | 0.48 | 88 | 1009.9 |
| 20260506121528 | 52 | 243 | 1.0 | 8.0 | 0.00 | 0.67 | 0.48 | 89 | 1009.8 |
| 20260506120010 | 52 | 323 | 2.0 | 6.0 | 0.00 | 0.67 | 0.48 | 92 | 1009.8 |
| 20260506114515 | 51 | 312 | 1.0 | 8.0 | 0.00 | 0.67 | 0.48 | 94 | 1009.7 |
| 20260506113019 | 51 | 36 | 1.0 | 4.0 | 0.00 | 0.67 | 0.48 | 96 | 1009.7 |
| 20260506111525 | 50 | 263 | 2.0 | 5.0 | 0.00 | 0.67 | 0.48 | 97 | 1009.7 |
| 20260506110030 | 50 | 348 | 1.0 | 4.0 | 0.00 | 0.67 | 0.48 | 97 | 1009.7 |
| 20260506104528 | 49 | 304 | 1.0 | 4.0 | 0.00 | 0.67 | 0.48 | 97 | 1009.9 |
| 20260506103018 | 48 | 317 | 1.0 | 4.0 | 0.00 | 0.67 | 0.48 | 97 | 1010.0 |
| 20260506101503 | 48 | 350 | 1.0 | 4.0 | 0.01 | 0.67 | 0.48 | 97 | 1009.8 |
| 20260506100004 | 48 | 324 | 0.0 | 5.0 | 0.02 | 0.67 | 0.48 | 97 | 1009.6 |
| 20260506094508 | 48 | 42 | 1.0 | 7.0 | 0.03 | 0.67 | 0.48 | 97 | 1009.5 |
| 20260506093004 | 48 | 309 | 1.0 | 5.0 | 0.03 | 0.66 | 0.48 | 97 | 1009.4 |
| 20260506091504 | 47 | 317 | 1.0 | 4.0 | 0.03 | 0.66 | 0.47 | 97 | 1009.3 |
| 20260506090004 | 47 | 33 | 0.0 | 4.0 | 0.03 | 0.65 | 0.46 | 97 | 1009.2 |
| 20260506084504 | 47 | 118 | 1.0 | 5.0 | 0.02 | 0.64 | 0.45 | 97 | 1009.1 |
| 20260506083009 | 47 | 340 | 0.0 | 3.0 | 0.02 | 0.62 | 0.44 | 97 | 1009.0 |
| 20260506081511 | 47 | 329 | 0.0 | 4.0 | 0.03 | 0.62 | 0.44 | 97 | 1008.9 |
| 20260506073006 | 46 | 15 | 1.0 | 5.0 | 0.03 | 0.60 | 0.41 | 97 | 1008.4 |
| 20260506071510 | 46 | 333 | 1.0 | 5.0 | 0.03 | 0.59 | 0.40 | 97 | 1008.3 |
| 20260506061514 | 45 | 323 | 0.0 | 7.0 | 0.05 | 0.55 | 0.37 | 97 | 1008.2 |
| 20260506044513 | 45 | 298 | 1.0 | 4.0 | 0.03 | 0.45 | 0.26 | 97 | 1008.1 |
| 20260506043020 | 45 | 32 | 1.0 | 6.0 | 0.03 | 0.44 | 0.25 | 97 | 1008.1 |
| 20260506041520 | 45 | 319 | 0.0 | 4.0 | 0.02 | 0.42 | 0.23 | 97 | 1008.1 |
| 20260506040023 | 46 | 58 | 1.0 | 7.0 | 0.02 | 0.41 | 0.22 | 97 | 1008.0 |
| 20260506034511 | 46 | 113 | 2.0 | 7.0 | 0.03 | 0.41 | 0.22 | 97 | 1008.1 |
| 20260506033016 | 46 | 98 | 1.0 | 7.0 | 0.02 | 0.40 | 0.22 | 97 | 1008.1 |
| 20260506031537 | 46 | 291 | 0.0 | 6.0 | 0.02 | 0.40 | 0.21 | 97 | 1008.1 |
| 20260506030024 | 46 | 19 | 0.0 | 5.0 | 0.02 | 0.39 | 0.20 | 97 | 1008.2 |
| 20260506024523 | 46 | 304 | 0.0 | 4.0 | 0.02 | 0.38 | 0.19 | 97 | 1008.2 |
| 20260506023012 | 46 | 52 | 0.0 | 9.0 | 0.03 | 0.38 | 0.19 | 97 | 1008.3 |
| 20260506021516 | 46 | 355 | 1.0 | 5.0 | 0.05 | 0.37 | 0.18 | 97 | 1008.3 |
| 20260506020020 | 47 | 336 | 1.0 | 4.0 | 0.05 | 0.37 | 0.18 | 96 | 1008.3 |
| 20260506014529 | 47 | 328 | 1.0 | 5.0 | 0.06 | 0.36 | 0.17 | 97 | 1008.4 |
| 20260506013028 | 47 | 322 | 0.0 | 3.0 | 0.05 | 0.34 | 0.15 | 97 | 1008.4 |
| 20260506011513 | 47 | 14 | 1.0 | 6.0 | 0.04 | 0.32 | 0.13 | 97 | 1008.4 |
| 20260506010012 | 47 | 300 | 1.0 | 9.0 | 0.04 | 0.31 | 0.12 | 97 | 1008.5 |
| 20260506004511 | 48 | 311 | 1.0 | 6.0 | 0.03 | 0.29 | 0.11 | 96 | 1008.5 |
| 20260506003008 | 48 | 323 | 0.0 | 5.0 | 0.03 | 0.29 | 0.10 | 97 | 1008.6 |
| 20260506001508 | 48 | 13 | 0.0 | 6.0 | 0.03 | 0.27 | 0.08 | 97 | 1008.6 |
| 20260506000014 | 48 | 15 | 1.0 | 6.0 | 0.03 | 0.26 | 0.07 | 97 | 1008.8 |
| 20260505234520 | 48 | 18 | 0.0 | 4.0 | 0.03 | 0.25 | 0.07 | 97 | 1008.9 |
| 20260505233004 | 48 | 315 | 1.0 | 4.0 | 0.03 | 0.25 | 0.06 | 97 | 1009.0 |
| 20260505231508 | 48 | 40 | 1.0 | 5.0 | 0.03 | 0.23 | 0.04 | 97 | 1009.0 |
| 20260505230011 | 48 | 355 | 0.0 | 5.0 | 0.03 | 0.22 | 0.03 | 97 | 1009.1 |
| 20260505224515 | 48 | 19 | 1.0 | 7.0 | 0.04 | 0.22 | 0.03 | 97 | 1009.2 |
| 20260505223021 | 49 | 5 | 0.0 | 6.0 | 0.05 | 0.21 | 0.02 | 97 | 1009.2 |
| 20260505221507 | 49 | 25 | 0.0 | 4.0 | 0.06 | 0.19 | 0.00 | 97 | 1009.1 |
| 20260505220007 | 49 | 5 | 1.0 | 5.0 | 0.07 | 0.18 | 0.00 | 97 | 1009.2 |
| 20260505214510 | 49 | 43 | 1.0 | 5.0 | 0.07 | 0.17 | 0.17 | 97 | 1009.2 |
| 20260505213018 | 49 | 22 | 1.0 | 7.0 | 0.07 | 0.15 | 0.15 | 96 | 1009.4 |
| 20260505211520 | 49 | 61 | 1.0 | 7.0 | 0.05 | 0.13 | 0.13 | 96 | 1009.4 |
| 20260505210027 | 49 | 19 | 2.0 | 8.0 | 0.04 | 0.11 | 0.11 | 97 | 1009.5 |
| 20260505204509 | 49 | 46 | 1.0 | 4.0 | 0.03 | 0.10 | 0.10 | 96 | 1009.5 |
| 20260505203011 | 50 | 355 | 0.0 | 3.0 | 0.03 | 0.08 | 0.08 | 97 | 1009.5 |
| 20260505201518 | 50 | 355 | 1.0 | 3.0 | 0.03 | 0.07 | 0.07 | 96 | 1009.4 |
| 20260505200035 | 50 | 355 | 1.0 | 4.0 | 0.03 | 0.07 | 0.07 | 96 | 1009.3 |
| 20260505194526 | 50 | 329 | 0.0 | 3.0 | 0.03 | 0.07 | 0.06 | 96 | 1009.2 |
| 20260505193010 | 50 | 285 | 0.0 | 3.0 | 0.03 | 0.06 | 0.05 | 96 | 1009.1 |
| 20260505191514 | 50 | 355 | 1.0 | 5.0 | 0.03 | 0.05 | 0.04 | 96 | 1009.0 |
| 20260505190019 | 50 | 325 | 1.0 | 5.0 | 0.03 | 0.04 | 0.03 | 96 | 1009.0 |